createdAt,value
2023-03-08T00:00:43.653Z,4.29
2023-03-08T00:06:07.313Z,4.11
2023-03-08T00:11:28.343Z,4.04
2023-03-08T00:16:52.094Z,3.92
2023-03-08T00:22:14.957Z,4.29
2023-03-08T00:27:33.994Z,4.68
2023-03-08T00:32:53.862Z,4.34
2023-03-08T00:38:13.175Z,4.94
2023-03-08T00:43:32.268Z,3.91
2023-03-08T00:49:07.328Z,4.40
2023-03-08T00:54:25.126Z,4.00
2023-03-08T00:59:47.473Z,4.12
2023-03-08T01:05:09.080Z,4.40
2023-03-08T01:10:29.189Z,4.14
2023-03-08T01:15:50.717Z,4.74
2023-03-08T01:21:15.339Z,4.31
2023-03-08T01:26:40.618Z,3.76
2023-03-08T01:32:05.071Z,4.56
2023-03-08T01:37:30.579Z,4.77
2023-03-08T01:42:51.154Z,4.75
2023-03-08T01:48:15.036Z,4.60
2023-03-08T01:53:37.758Z,4.36
2023-03-08T01:58:56.778Z,4.36
2023-03-08T02:04:15.438Z,4.54
2023-03-08T02:09:37.065Z,4.68
2023-03-08T02:15:01.801Z,5.29
2023-03-08T02:20:27.662Z,4.74
2023-03-08T02:25:49.610Z,5.08
2023-03-08T02:31:10.432Z,4.32
2023-03-08T02:37:45.543Z,5.15
2023-03-08T02:43:07.951Z,4.83
2023-03-08T02:48:48.203Z,4.59
2023-03-08T02:54:12.264Z,4.79
2023-03-08T02:59:37.220Z,4.82
2023-03-08T03:04:59.247Z,5.19
2023-03-08T03:10:24.731Z,4.93
2023-03-08T03:15:49.827Z,4.94
2023-03-08T03:21:14.121Z,4.64
2023-03-08T03:26:32.106Z,4.85
2023-03-08T03:31:50.176Z,4.70
2023-03-08T03:37:13.422Z,4.54
2023-03-08T03:42:37.915Z,4.96
2023-03-08T03:47:56.849Z,5.08
2023-03-08T03:53:21.276Z,5.35
2023-03-08T03:58:42.829Z,4.87
2023-03-08T04:04:04.676Z,4.97
2023-03-08T04:09:49.556Z,5.50
2023-03-08T04:15:11.871Z,5.71
2023-03-08T04:20:35.143Z,5.38
2023-03-08T04:25:56.000Z,5.26
2023-03-08T04:31:35.171Z,5.30
2023-03-08T04:36:58.153Z,5.53
2023-03-08T04:42:20.519Z,5.33
2023-03-08T04:47:44.211Z,5.32
2023-03-08T04:53:09.327Z,5.24
2023-03-08T04:58:33.852Z,5.29
2023-03-08T05:03:52.622Z,5.57
2023-03-08T05:09:17.541Z,5.81
2023-03-08T05:14:36.192Z,5.99
2023-03-08T05:20:01.210Z,5.90
2023-03-08T05:25:28.684Z,5.82
2023-03-08T05:30:47.892Z,5.21
2023-03-08T05:36:15.379Z,5.49
2023-03-08T05:41:39.858Z,5.15
2023-03-08T05:47:04.800Z,5.80
2023-03-08T05:52:30.015Z,5.92
2023-03-08T05:57:55.422Z,5.56
2023-03-08T06:03:15.635Z,5.56
2023-03-08T06:08:40.523Z,6.10
2023-03-08T06:14:05.053Z,6.21
2023-03-08T06:19:23.561Z,6.44
2023-03-08T06:24:48.784Z,6.02
2023-03-08T06:30:13.541Z,6.15
2023-03-08T06:35:40.328Z,6.29
2023-03-08T06:41:12.154Z,5.84
2023-03-08T06:46:35.319Z,6.75
2023-03-08T06:52:00.547Z,6.15
2023-03-08T06:57:26.385Z,6.89
2023-03-08T07:02:51.534Z,6.19
2023-03-08T07:08:41.458Z,6.61
2023-03-08T07:14:02.526Z,5.76
2023-03-08T07:19:46.716Z,6.22
2023-03-08T07:25:05.370Z,5.28
2023-03-08T07:30:27.144Z,5.77
2023-03-08T07:35:45.574Z,5.35
2023-03-08T07:41:10.872Z,4.83
2023-03-08T07:46:35.751Z,5.41
2023-03-08T07:52:00.968Z,5.65
2023-03-08T07:57:26.977Z,5.19
2023-03-08T08:02:50.378Z,5.74
2023-03-08T08:08:15.547Z,5.37
2023-03-08T08:13:40.352Z,5.74
2023-03-08T08:19:04.964Z,5.97
2023-03-08T08:24:24.431Z,6.46
2023-03-08T08:29:42.798Z,6.62
2023-03-08T08:35:07.039Z,7.29
2023-03-08T08:40:28.516Z,7.51
2023-03-08T08:45:50.614Z,8.54
2023-03-08T08:51:08.873Z,7.40
2023-03-08T08:56:31.699Z,7.03
2023-03-08T09:01:56.204Z,7.55
2023-03-08T09:07:21.533Z,7.34
2023-03-08T09:12:38.578Z,7.07
2023-03-08T09:18:02.802Z,7.47
2023-03-08T09:23:27.462Z,7.23
2023-03-08T09:28:50.875Z,7.39
2023-03-08T09:34:36.910Z,7.71
2023-03-08T09:40:00.724Z,7.20
2023-03-08T09:45:30.767Z,6.70
2023-03-08T09:50:53.838Z,5.62
2023-03-08T09:56:16.973Z,4.90
2023-03-08T10:01:41.144Z,4.16
2023-03-08T10:07:05.511Z,4.05
2023-03-08T10:12:31.174Z,3.79
2023-03-08T10:17:57.861Z,3.49
2023-03-08T10:23:16.734Z,2.90
2023-03-08T10:28:41.857Z,3.67
2023-03-08T10:34:08.060Z,3.58
2023-03-08T10:39:33.223Z,3.35
2023-03-08T10:45:11.076Z,3.56
2023-03-08T10:50:44.583Z,3.41
2023-03-08T10:56:14.024Z,3.32
2023-03-08T11:01:38.583Z,3.40
2023-03-08T11:07:02.411Z,3.45
2023-03-08T11:12:30.277Z,3.51
2023-03-08T11:18:12.492Z,4.01
2023-03-08T11:23:32.662Z,3.95
2023-03-08T11:28:57.604Z,4.08
2023-03-08T11:34:29.197Z,4.41
2023-03-08T11:40:14.078Z,4.49
2023-03-08T11:45:39.812Z,4.87
2023-03-08T11:50:59.565Z,4.43
2023-03-08T11:56:25.979Z,4.98
2023-03-08T12:01:58.782Z,4.75
2023-03-08T12:07:24.783Z,5.42
2023-03-08T12:12:49.637Z,5.34
2023-03-08T12:18:14.667Z,5.70
2023-03-08T12:23:39.297Z,6.17
2023-03-08T12:28:59.410Z,6.83
2023-03-08T12:34:21.665Z,4.86
2023-03-08T12:39:49.366Z,5.10
2023-03-08T12:45:12.285Z,6.55
2023-03-08T12:50:50.601Z,6.89
2023-03-08T12:56:26.012Z,6.00
2023-03-08T13:01:45.278Z,5.70
2023-03-08T13:07:16.009Z,5.02
2023-03-08T13:12:42.481Z,5.27
2023-03-08T13:18:26.202Z,4.96
2023-03-08T13:23:44.932Z,5.19
2023-03-08T13:29:09.696Z,5.22
2023-03-08T13:34:30.911Z,5.38
2023-03-08T13:39:49.623Z,4.46
2023-03-08T13:45:14.990Z,4.95
2023-03-08T13:50:32.638Z,4.77
2023-03-08T13:55:54.161Z,4.49
2023-03-08T14:01:14.893Z,5.29
2023-03-08T14:06:35.783Z,4.51
2023-03-08T14:11:54.295Z,4.85
2023-03-08T14:17:19.956Z,5.52
2023-03-08T14:22:40.122Z,4.79
2023-03-08T14:28:03.528Z,5.60
2023-03-08T14:34:19.478Z,6.23
2023-03-08T14:39:40.392Z,5.48
2023-03-08T14:45:13.762Z,5.67
2023-03-08T14:50:39.057Z,4.94
2023-03-08T14:56:08.507Z,5.14
2023-03-08T15:01:30.055Z,4.53
2023-03-08T15:06:55.265Z,4.54
2023-03-08T15:12:14.287Z,4.89
2023-03-08T15:17:33.581Z,4.14
2023-03-08T15:22:58.481Z,3.26
2023-03-08T15:28:17.166Z,3.81
2023-03-08T15:33:42.151Z,2.67
2023-03-08T15:39:06.852Z,2.90
2023-03-08T15:44:26.325Z,2.87
2023-03-08T15:49:49.822Z,3.53
2023-03-08T15:55:08.921Z,2.83
2023-03-08T16:00:32.850Z,2.50
2023-03-08T16:05:55.305Z,2.38
2023-03-08T16:11:18.404Z,2.65
2023-03-08T16:16:45.641Z,2.38
2023-03-08T16:22:05.749Z,2.18
2023-03-08T16:27:29.984Z,2.31
2023-03-08T16:32:49.159Z,2.74
2023-03-08T16:38:11.542Z,2.49
2023-03-08T16:43:40.699Z,2.78
2023-03-08T16:48:55.969Z,2.80
2023-03-08T16:54:20.825Z,2.57
2023-03-08T16:59:46.956Z,2.57
2023-03-08T17:05:12.860Z,1.75
2023-03-08T17:10:36.713Z,1.82
2023-03-08T17:16:01.876Z,1.63
2023-03-08T17:21:29.419Z,1.01
2023-03-08T17:26:50.918Z,1.47
2023-03-08T17:32:28.984Z,0.65
2023-03-08T17:37:46.712Z,0.47
2023-03-08T17:43:08.104Z,0.71
2023-03-08T17:48:33.421Z,0.64
2023-03-08T17:53:54.997Z,0.46
2023-03-08T17:59:18.918Z,0.48
2023-03-08T18:04:43.582Z,0.60
2023-03-08T18:10:07.796Z,0.71
2023-03-08T18:15:29.392Z,0.59
2023-03-08T18:20:50.978Z,0.96
2023-03-08T18:26:12.919Z,0.89
2023-03-08T18:31:36.717Z,1.13
2023-03-08T18:37:01.908Z,1.28
2023-03-08T18:42:25.119Z,1.39
2023-03-08T18:47:43.388Z,1.66
2023-03-08T18:53:10.459Z,1.53
2023-03-08T18:58:29.303Z,1.80
2023-03-08T19:03:55.374Z,2.16
2023-03-08T19:09:45.103Z,2.34
2023-03-08T19:15:10.956Z,2.59
2023-03-08T19:21:01.015Z,3.05
2023-03-08T19:26:22.897Z,2.48
2023-03-08T19:31:47.880Z,3.49
2023-03-08T19:37:11.643Z,2.65
2023-03-08T19:42:57.034Z,2.48
2023-03-08T19:48:15.493Z,1.47
2023-03-08T19:53:41.247Z,1.47
2023-03-08T19:59:06.211Z,1.93
2023-03-08T20:04:46.336Z,1.62
2023-03-08T20:10:16.031Z,1.69
2023-03-08T20:15:32.534Z,1.90
2023-03-08T20:20:58.400Z,2.52
2023-03-08T20:26:45.453Z,2.57
2023-03-08T20:32:03.310Z,1.64
2023-03-08T20:37:28.860Z,1.49
2023-03-08T20:42:47.506Z,1.69
2023-03-08T20:48:09.483Z,1.89
2023-03-08T20:53:35.228Z,2.16
2023-03-08T20:59:00.698Z,2.39
2023-03-08T21:04:23.702Z,2.46
2023-03-08T21:10:02.663Z,4.09
2023-03-08T21:15:42.495Z,5.58
2023-03-08T21:21:05.557Z,3.60
2023-03-08T21:26:34.315Z,3.67
2023-03-08T21:31:53.103Z,2.31
2023-03-08T21:37:18.313Z,2.47
2023-03-08T21:42:43.821Z,2.49
2023-03-08T21:48:09.393Z,2.24
2023-03-08T21:53:34.956Z,3.07
2023-03-08T21:58:59.556Z,2.67
2023-03-08T22:04:23.772Z,3.12
2023-03-08T22:09:47.024Z,4.34
2023-03-08T22:15:11.618Z,4.52
2023-03-08T22:20:36.595Z,3.33
2023-03-08T22:26:01.952Z,2.84
2023-03-08T22:31:38.085Z,1.90
2023-03-08T22:37:52.331Z,2.27
2023-03-08T22:43:14.616Z,1.82
2023-03-08T22:48:33.176Z,1.41
2023-03-08T22:54:12.484Z,1.45
2023-03-08T22:59:35.773Z,1.33
2023-03-08T23:04:54.896Z,1.17
2023-03-08T23:10:19.798Z,1.15
2023-03-08T23:15:45.075Z,1.01
2023-03-08T23:21:08.054Z,1.20
2023-03-08T23:26:31.757Z,1.09
2023-03-08T23:31:50.396Z,1.21
2023-03-08T23:37:15.391Z,1.13
2023-03-08T23:43:21.414Z,1.02
2023-03-08T23:48:59.990Z,1.04
2023-03-08T23:54:22.258Z,0.77
2023-03-08T23:59:44.767Z,1.26
